Madonna, Vermont
Current Conditions -  °F | °C
As of 6:54 PM on Thursday 18 Dec 2014 (Local Time) from KMVL Reporting Station
Unknown Precip Unknown Precip  
Wind Chill: 21°   Ceiling: 1800
Heat Index: 30°   Visibility: 6mi
Dew Point: 25°   Wind: 10mph
Humidity: 82%   Direction: 310°NW
Pressure: 29.89"   Gusts: 17mph
Location:  44.6639°N, 72.7787°W
Report Text: KMVL 182354Z AUTO 31009G15KT 6SM UP OVC018 M01/M04 A2989 RMK AO2 SLP131 P0000 60001 I1000 I6000 T10111039 10006 21011 51010 TSNO
Loading
Personal Weather Stations






























Interactive Weather Map New forecast layout! Learn more

10-Day Weather Forecast

Advertisements
Track Severe Weather on mobile